Time;durP1;ratioP1;P1;durP2;ratioP2;P2;SDS_P1;SDS_P2;PMS_P1;PMS_P2;Temp;Humidity;BMP_temperature;BMP_pressure;BME280_temperature;BME280_humidity;BME280_pressure;Samples;Min_cycle;Max_cycle;Signal;HPM_P1;HPM_P2
2022/11/18 00:00:45;;;;;;;10.80;1.58;;;;;;;21.42;66.51;97825.97;7317168;19;129079;-42
2022/11/18 00:03:11;;;;;;;22.33;2.63;;;;;;;21.47;66.71;97833.31;7318074;19;130109;-36
2022/11/18 00:05:36;;;;;;;16.02;2.22;;;;;;;21.43;66.81;97832.84;7316771;19;129139;-39
2022/11/18 00:08:01;;;;;;;23.75;3.20;;;;;;;21.43;67.13;97838.09;7316300;19;129047;-37
2022/11/18 00:10:27;;;;;;;6.22;1.58;;;;;;;21.43;67.24;97822.41;7316248;19;129760;-40
2022/11/18 00:15:36;;;;;;;15.32;2.08;;;;;;;21.40;67.82;97822.72;7316311;19;129347;-40
2022/11/18 00:18:01;;;;;;;18.17;2.22;;;;;;;21.42;67.79;97814.75;7316185;19;128960;-41
2022/11/18 00:20:26;;;;;;;13.88;2.00;;;;;;;21.37;66.96;97812.66;7316595;19;129041;-41
2022/11/18 00:22:52;;;;;;;19.73;2.55;;;;;;;21.40;68.49;97814.88;7316597;19;129137;-36
2022/11/18 00:25:17;;;;;;;15.73;2.03;;;;;;;21.39;68.99;97815.91;7315917;19;129315;-36
2022/11/18 00:27:42;;;;;;;10.53;1.77;;;;;;;21.38;68.22;97816.91;7314082;19;128873;-33
2022/11/18 00:30:08;;;;;;;26.48;3.08;;;;;;;21.38;69.32;97814.28;7315361;19;129373;-34
2022/11/18 00:32:34;;;;;;;15.50;2.00;;;;;;;21.39;68.26;97818.50;7315888;19;129596;-35
2022/11/18 00:34:59;;;;;;;26.10;3.20;;;;;;;21.37;68.90;97822.31;7314999;19;129652;-34
2022/11/18 00:37:24;;;;;;;20.27;2.60;;;;;;;21.39;68.34;97821.13;7313884;19;129299;-35
2022/11/18 00:39:50;;;;;;;11.90;1.83;;;;;;;21.38;68.78;97823.91;7316294;19;129017;-39
2022/11/18 00:44:59;;;;;;;25.17;3.05;;;;;;;21.40;68.37;97837.63;7315769;19;129712;-35
2022/11/18 00:47:24;;;;;;;19.23;2.40;;;;;;;21.37;68.79;97833.56;7313454;19;129134;-37
2022/11/18 00:49:50;;;;;;;20.85;2.55;;;;;;;21.39;68.25;97841.22;7315892;19;129491;-36
2022/11/18 00:52:15;;;;;;;18.67;2.53;;;;;;;21.38;69.18;97840.44;7315406;19;129195;-36
2022/11/18 00:54:40;;;;;;;4.13;1.13;;;;;;;21.38;68.21;97840.44;7315615;19;130368;-42
2022/11/18 00:57:06;;;;;;;26.20;2.97;;;;;;;21.35;67.85;97835.56;7314455;19;129693;-34
2022/11/18 00:59:31;;;;;;;16.20;2.17;;;;;;;21.34;68.87;97833.94;7315480;19;128934;-34
2022/11/18 01:01:56;;;;;;;25.95;3.10;;;;;;;21.36;68.16;97836.34;7315546;19;129488;-30
2022/11/18 01:04:22;;;;;;;10.60;1.77;;;;;;;21.40;68.37;97835.00;7314865;19;130465;-32
2022/11/18 01:06:47;;;;;;;20.75;2.45;;;;;;;21.37;69.38;97838.78;7313946;19;129040;-39
2022/11/18 01:09:13;;;;;;;18.05;2.42;;;;;;;21.36;68.13;97831.94;7315396;19;129277;-37
2022/11/18 01:14:25;;;;;;;16.30;2.20;;;;;;;21.37;69.59;97838.78;7316033;19;129515;-35
2022/11/18 01:16:55;;;;;;;22.52;2.90;;;;;;;21.26;69.42;97820.13;7312565;19;128708;-38
2022/11/18 01:19:20;;;;;;;16.02;2.08;;;;;;;21.34;68.00;97836.53;7315651;19;129100;-37
2022/11/18 01:21:46;;;;;;;21.10;2.50;;;;;;;21.34;68.14;97830.50;7315272;19;130109;-38
2022/11/18 01:24:11;;;;;;;17.90;2.13;;;;;;;21.34;68.41;97826.09;7315229;19;129602;-34
2022/11/18 01:26:36;;;;;;;19.98;2.97;;;;;;;21.33;69.17;97827.09;7312475;19;128888;-40
2022/11/18 01:29:02;;;;;;;28.15;3.25;;;;;;;21.36;67.95;97824.09;7311214;19;128942;-37
2022/11/18 01:31:27;;;;;;;16.75;2.13;;;;;;;21.26;67.79;97818.34;7314188;19;130319;-32
2022/11/18 01:33:52;;;;;;;44.85;4.95;;;;;;;21.18;67.58;97818.44;7311920;19;130397;-37
2022/11/18 01:36:21;;;;;;;15.63;2.05;;;;;;;21.14;67.88;97816.38;7314012;19;129235;-39
2022/11/18 01:38:48;;;;;;;20.60;2.55;;;;;;;21.10;68.67;97821.13;7314662;19;129620;-39
2022/11/18 01:41:14;;;;;;;17.17;2.13;;;;;;;21.08;68.45;97814.44;7314134;19;130106;-38
2022/11/18 01:43:55;;;;;;;17.20;2.20;;;;;;;21.02;69.96;97813.38;7314531;19;129159;-42
2022/11/18 01:46:23;;;;;;;9.13;1.63;;;;;;;21.02;69.03;97816.00;7313243;19;128807;-35
2022/11/18 01:49:11;;;;;;;23.63;2.80;;;;;;;20.99;70.44;97813.72;7313198;19;129034;-31
2022/11/18 01:51:51;;;;;;;20.38;2.47;;;;;;;20.85;69.92;97801.44;7313750;19;129822;-39
2022/11/18 01:54:22;;;;;;;11.60;1.73;;;;;;;20.94;68.82;97823.84;7313912;19;129207;-34
2022/11/18 01:56:52;;;;;;;17.90;2.20;;;;;;;20.93;69.28;97818.81;7312384;19;128882;-38
2022/11/18 01:59:22;;;;;;;17.55;2.33;;;;;;;20.92;69.63;97822.44;7314639;19;129230;-38
2022/11/18 02:01:47;;;;;;;17.20;2.28;;;;;;;20.93;68.85;97819.63;7314403;19;130339;-36
2022/11/18 02:04:13;;;;;;;8.20;1.65;;;;;;;20.94;69.71;97823.06;7313043;19;129262;-42
2022/11/18 02:06:41;;;;;;;15.20;1.90;;;;;;;20.94;69.22;97826.47;7312535;19;129024;-37
2022/11/18 02:09:06;;;;;;;29.50;3.15;;;;;;;20.94;69.38;97818.63;7311356;19;128890;-42
2022/11/18 02:11:50;;;;;;;22.13;2.28;;;;;;;20.93;70.04;97809.19;7314874;19;129095;-42
2022/11/18 02:14:24;;;;;;;18.80;2.38;;;;;;;20.91;69.67;97807.75;7312809;19;129332;-37
2022/11/18 02:16:57;;;;;;;16.77;2.33;;;;;;;20.93;70.57;97814.41;7312820;19;129146;-47
2022/11/18 02:19:35;;;;;;;18.02;2.45;;;;;;;20.90;69.76;97820.00;7314267;19;129107;-36
2022/11/18 02:22:07;;;;;;;;;;;;;;;20.89;69.83;97820.97;7312796;19;130672;-41
2022/11/18 02:24:48;;;;;;;19.60;2.47;;;;;;;20.89;71.41;97823.56;7313760;19;130341;-42
2022/11/18 02:27:22;;;;;;;17.38;2.20;;;;;;;20.85;69.77;97819.72;7311435;19;130268;-41
2022/11/18 02:29:57;;;;;;;17.38;2.08;;;;;;;20.86;69.23;97808.25;7319751;19;130806;-36
2022/11/18 02:32:29;;;;;;;20.92;2.55;;;;;;;20.78;69.82;97792.69;7319609;19;129708;-41
2022/11/18 02:35:26;;;;;;;20.58;2.50;;;;;;;20.89;70.68;97807.13;7319370;19;130582;-41
2022/11/18 02:38:10;;;;;;;13.97;2.30;;;;;;;20.87;70.44;97804.69;7317972;19;129447;-39
2022/11/18 02:40:42;;;;;;;17.73;2.08;;;;;;;20.85;69.98;97801.44;7320417;19;129384;-41
2022/11/18 02:43:25;;;;;;;23.45;2.45;;;;;;;20.85;70.63;97806.66;7319620;19;129489;-37
2022/11/18 02:45:55;;;;;;;9.00;1.63;;;;;;;20.84;70.39;97805.00;7318012;19;130331;-37
2022/11/18 02:48:25;;;;;;;19.45;2.38;;;;;;;20.83;69.74;97811.25;7317598;19;129644;-42
2022/11/18 02:50:53;;;;;;;25.83;3.03;;;;;;;20.83;68.92;97808.63;7318372;19;129167;-35
2022/11/18 02:53:20;;;;;;;9.40;1.70;;;;;;;20.82;69.76;97803.59;7318786;19;130125;-38
2022/11/18 02:55:47;;;;;;;20.80;2.42;;;;;;;20.82;70.07;97807.00;7316807;19;129477;-40
2022/11/18 02:58:16;;;;;;;22.40;2.60;;;;;;;20.84;70.33;97802.41;7317374;19;129932;-41
2022/11/18 03:00:43;;;;;;;18.20;2.20;;;;;;;20.82;69.94;97807.00;7319227;19;130221;-38
2022/11/18 03:03:40;;;;;;;21.67;2.45;;;;;;;20.83;71.50;97808.63;7318269;19;129268;-35
2022/11/18 03:06:28;;;;;;;11.93;2.25;;;;;;;20.86;71.10;97812.69;7314082;19;131424;-36
2022/11/18 03:09:03;;;;;;;20.13;2.38;;;;;;;20.85;70.97;97801.44;7316255;19;128863;-33
2022/11/18 03:11:38;;;;;;;22.02;2.55;;;;;;;20.83;69.53;97811.25;7320357;19;129083;-35
2022/11/18 03:14:39;;;;;;;7.32;1.83;;;;;;;20.83;70.79;97811.25;7318077;19;132399;-33
2022/11/18 03:17:33;;;;;;;7.18;1.50;;;;;;;20.85;70.80;97813.66;7314393;19;130596;-35
2022/11/18 03:20:18;;;;;;;28.20;3.20;;;;;;;20.84;70.65;97815.47;7318675;19;129155;-39
2022/11/18 03:22:44;;;;;;;16.15;2.03;;;;;;;20.71;69.75;97799.59;7319368;19;129322;-37
2022/11/18 03:25:43;;;;;;;26.05;2.92;;;;;;;20.82;71.55;97817.47;7317829;19;130715;-37
2022/11/18 03:28:21;;;;;;;27.42;2.97;;;;;;;20.73;70.69;97802.84;7315622;19;129464;-36
2022/11/18 03:30:57;;;;;;;18.17;2.20;;;;;;;20.80;70.79;97814.22;7319015;19;128834;-37
2022/11/18 03:33:32;;;;;;;7.30;1.35;;;;;;;20.81;70.01;97826.28;7317624;19;128964;-38
2022/11/18 03:36:02;;;;;;;20.88;2.42;;;;;;;20.80;70.43;97819.44;7316405;19;128988;-39
2022/11/18 03:38:32;;;;;;;10.10;1.75;;;;;;;20.81;69.56;97831.50;7317433;19;130072;-42
2022/11/18 03:41:02;;;;;;;14.57;2.30;;;;;;;20.78;70.74;97821.41;7316801;19;129758;-40
2022/11/18 03:43:34;;;;;;;12.63;1.88;;;;;;;20.74;70.93;97825.38;7317833;19;130514;-34
2022/11/18 03:46:18;;;;;;;27.70;2.97;;;;;;;20.77;69.72;97830.25;7316836;19;129862;-40
2022/11/18 03:48:51;;;;;;;19.48;2.22;;;;;;;20.78;70.98;97831.84;7315997;19;130146;-33
2022/11/18 03:51:25;;;;;;;24.00;2.65;;;;;;;20.77;70.69;97836.25;7316397;19;128930;-44
2022/11/18 03:53:55;;;;;;;40.15;4.00;;;;;;;20.80;70.64;97834.28;7316747;19;129157;-43
2022/11/18 03:56:27;;;;;;;33.95;3.63;;;;;;;20.78;69.36;97831.84;7315036;19;130730;-41
2022/11/18 03:59:01;;;;;;;22.73;2.58;;;;;;;20.94;68.53;97829.09;7316936;19;130728;-37
2022/11/18 04:01:44;;;;;;;8.68;1.55;;;;;;;21.20;67.09;97837.34;7316813;19;130264;-32
2022/11/18 04:04:11;;;;;;;19.65;2.28;;;;;;;21.66;65.69;97838.78;7317443;19;130055;-38
2022/11/18 04:06:49;;;;;;;16.30;2.10;;;;;;;22.13;64.16;97840.16;7315081;19;129085;-38
2022/11/18 04:09:21;;;;;;;18.08;2.15;;;;;;;22.51;62.47;97841.53;7313983;19;129247;-41
2022/11/18 04:12:02;;;;;;;12.50;2.08;;;;;;;22.83;61.50;97839.22;7316464;19;128962;-37
2022/11/18 04:14:39;;;;;;;32.88;3.17;;;;;;;23.03;60.67;97840.19;7315396;19;128921;-37
2022/11/18 04:17:10;;;;;;;20.15;2.20;;;;;;;23.18;60.65;97821.72;7314434;19;129995;-36
2022/11/18 04:19:36;;;;;;;23.23;2.55;;;;;;;23.40;59.77;97836.41;7316178;19;128984;-40
2022/11/18 04:22:01;;;;;;;35.20;3.33;;;;;;;23.46;59.69;97842.69;7316130;19;129253;-41
2022/11/18 04:24:27;;;;;;;31.15;2.85;;;;;;;23.54;59.24;97845.94;7315064;19;130245;-41
2022/11/18 04:26:52;;;;;;;25.48;2.72;;;;;;;23.63;59.02;97846.59;7314125;19;129847;-40
2022/11/18 04:29:18;;;;;;;26.65;2.90;;;;;;;23.68;58.62;97850.28;7313056;19;129782;-36
2022/11/18 04:31:43;;;;;;;24.42;2.45;;;;;;;23.71;58.76;97838.56;7315437;19;129205;-40
2022/11/18 04:34:08;;;;;;;25.60;2.50;;;;;;;23.75;58.16;97845.06;7315356;19;128971;-38
2022/11/18 04:36:34;;;;;;;21.92;2.28;;;;;;;23.77;58.13;97838.59;7315339;19;131004;-36
2022/11/18 04:38:59;;;;;;;20.35;2.17;;;;;;;23.77;58.56;97848.28;7316054;19;131090;-41
2022/11/18 04:41:54;;;;;;;16.57;2.03;;;;;;;23.72;58.78;97838.38;7316079;19;128995;-42
2022/11/18 04:44:11;;;;;;;25.98;2.75;;;;;;;23.66;59.14;97844.41;7314399;19;129278;-36
2022/11/18 04:46:38;;;;;;;18.92;2.20;;;;;;;23.58;59.10;97839.31;7313081;19;129337;-40
2022/11/18 04:49:03;;;;;;;;;;;;;;;23.45;59.75;97843.69;7314636;19;130498;-41
2022/11/18 04:51:29;;;;;;;25.60;2.67;;;;;;;23.40;60.10;97849.53;7313990;19;129706;-39
2022/11/18 04:53:54;;;;;;;45.40;4.17;;;;;;;23.35;59.95;97854.53;7314142;19;129481;-38
2022/11/18 04:56:19;;;;;;;17.35;2.03;;;;;;;23.14;60.07;97844.06;7313516;19;129155;-37
2022/11/18 04:58:45;;;;;;;31.27;2.92;;;;;;;23.11;60.92;97853.13;7315335;19;129337;-42
2022/11/18 05:01:10;;;;;;;24.20;2.43;;;;;;;22.93;61.15;97841.50;7313897;19;129055;-37
2022/11/18 05:03:35;;;;;;;37.70;3.72;;;;;;;22.94;60.95;97864.09;7312894;19;129071;-38
2022/11/18 05:06:01;;;;;;;26.17;2.87;;;;;;;22.81;61.60;97856.13;7312889;19;129099;-42
2022/11/18 05:08:26;;;;;;;21.48;2.58;;;;;;;22.68;62.20;97862.06;7312872;19;130233;-37
2022/11/18 05:12:47;;;;;;;4.07;1.30;;;;;;;22.58;62.18;97866.00;7313316;19;129068;-37
2022/11/18 05:13:37;;;;;;;33.47;3.22;;;;;;;22.46;62.71;97864.84;7313341;19;128967;-41
2022/11/18 05:16:02;;;;;;;28.58;2.95;;;;;;;22.38;63.17;97875.47;7311807;19;129498;-41
2022/11/18 05:18:27;;;;;;;26.80;2.77;;;;;;;22.27;63.11;97878.53;7314688;19;129655;-37
2022/11/18 05:20:53;;;;;;;31.10;3.37;;;;;;;22.18;63.08;97879.66;7310986;19;130859;-40
2022/11/18 05:23:18;;;;;;;23.55;2.72;;;;;;;22.14;63.33;97875.78;7312976;19;130649;-42
2022/11/18 05:25:43;;;;;;;32.00;2.95;;;;;;;22.01;63.80;97884.31;7312967;19;129162;-40
2022/11/18 05:28:09;;;;;;;22.43;2.50;;;;;;;21.92;64.24;97875.75;7312990;19;131158;-40
2022/11/18 05:30:34;;;;;;;20.87;2.30;;;;;;;21.85;64.24;97885.31;7314300;19;129622;-37
2022/11/18 05:32:59;;;;;;;23.90;2.67;;;;;;;21.82;64.94;97880.44;7306093;19;129163;-39
2022/11/18 05:35:24;;;;;;;49.05;4.28;;;;;;;21.77;65.17;97890.66;7312064;19;129068;-42
2022/11/18 05:37:50;;;;;;;19.77;2.35;;;;;;;21.73;64.93;97886.72;7306351;19;129485;-41
2022/11/18 05:40:15;;;;;;;18.45;2.17;;;;;;;21.61;65.44;97880.34;7313642;19;130532;-42
2022/11/18 05:45:24;;;;;;;21.70;2.60;;;;;;;21.55;65.64;97882.88;7312664;19;128879;-36
2022/11/18 05:47:59;;;;;;;23.80;2.83;;;;;;;21.54;66.02;97887.28;7310716;19;129284;-37
2022/11/18 05:50:24;;;;;;;20.95;2.42;;;;;;;21.51;66.47;97892.06;7310974;19;129575;-41
2022/11/18 05:52:49;;;;;;;20.27;2.28;;;;;;;21.50;66.35;97896.47;7314039;19;129474;-41
2022/11/18 05:55:17;;;;;;;52.28;5.00;;;;;;;21.47;66.38;97896.06;7305727;19;129944;-35
2022/11/18 05:57:42;;;;;;;18.25;2.42;;;;;;;21.45;66.19;97901.44;7307637;19;129136;-41
2022/11/18 06:02:36;;;;;;;40.70;3.58;;;;;;;21.41;66.89;97918.50;7309136;19;130731;-39
2022/11/18 06:05:03;;;;;;;37.20;3.60;;;;;;;21.40;67.18;97916.84;7315932;19;131288;-38
2022/11/18 06:07:32;;;;;;;;;;;;;;;21.35;66.68;97916.59;7313655;19;131846;-38
2022/11/18 06:09:59;;;;;;;26.70;2.65;;;;;;;21.37;67.00;97922.44;7315970;19;129222;-35
2022/11/18 06:12:29;;;;;;;31.85;3.25;;;;;;;21.34;66.06;97933.25;7317190;19;130123;-37
2022/11/18 06:15:17;;;;;;;44.97;4.07;;;;;;;21.36;66.34;97936.50;7315590;19;129024;-38
2022/11/18 06:17:54;;;;;;;45.00;4.15;;;;;;;21.44;65.94;97939.03;7313957;19;129698;-36
2022/11/18 06:20:20;;;;;;;47.00;4.47;;;;;;;21.47;65.45;97941.28;7316948;19;129622;-36
2022/11/18 06:22:52;;;;;;;36.10;3.67;;;;;;;21.53;65.44;97935.38;7318350;19;129321;-36
2022/11/18 06:25:18;;;;;;;32.30;3.13;;;;;;;21.61;65.40;97935.28;7317092;19;130179;-36
2022/11/18 06:27:45;;;;;;;28.80;3.15;;;;;;;21.66;64.99;97935.56;7314050;19;129277;-36
2022/11/18 06:30:10;;;;;;;;;;;;;;;21.74;64.66;97951.16;7317286;19;131683;-37
2022/11/18 06:32:36;;;;;;;48.30;4.40;;;;;;;21.85;64.21;97950.72;7314246;19;129295;-39
2022/11/18 06:35:01;;;;;;;26.27;2.65;;;;;;;21.98;63.80;97953.50;7316817;19;129541;-36
2022/11/18 06:37:26;;;;;;;11.52;2.22;;;;;;;22.03;64.35;97954.78;7317860;19;130343;-38
2022/11/18 06:39:52;;;;;;;39.28;3.92;;;;;;;22.10;63.43;97963.53;7317900;19;130542;-36
2022/11/18 06:45:02;;;;;;;36.53;3.70;;;;;;;22.22;63.68;97965.50;7317448;19;129173;-38
2022/11/18 06:47:28;;;;;;;28.90;3.13;;;;;;;22.31;63.00;97974.06;7316418;19;130414;-37
2022/11/18 06:49:53;;;;;;;64.68;5.38;;;;;;;22.37;62.76;97971.50;7313363;19;129228;-35
2022/11/18 06:52:20;;;;;;;62.83;5.28;;;;;;;22.39;63.25;97980.00;7312944;19;129174;-36
2022/11/18 06:54:45;;;;;;;26.98;3.22;;;;;;;22.47;62.50;97981.69;7312299;19;130849;-35
2022/11/18 06:57:11;;;;;;;46.95;3.97;;;;;;;22.48;62.65;97991.16;7316762;19;129739;-38
2022/11/18 06:59:36;;;;;;;79.43;6.32;;;;;;;22.54;62.37;97995.72;7314810;19;129947;-38
2022/11/18 07:02:01;;;;;;;26.58;3.00;;;;;;;22.59;62.08;97995.97;7312972;19;128863;-37
2022/11/18 07:04:26;;;;;;;21.88;2.58;;;;;;;22.62;62.38;97988.56;7314774;19;129318;-36
2022/11/18 07:06:52;;;;;;;55.15;4.75;;;;;;;22.62;62.01;97987.75;7311574;19;130729;-33
2022/11/18 07:09:17;;;;;;;35.77;3.63;;;;;;;22.54;61.65;97980.00;7315481;19;130274;-39
2022/11/18 07:11:43;;;;;;;26.88;3.05;;;;;;;22.61;62.48;97992.16;7313351;19;128985;-34
2022/11/18 07:14:09;;;;;;;28.97;2.90;;;;;;;22.51;62.54;98001.28;7314053;19;129569;-37
2022/11/18 07:16:35;;;;;;;9.88;2.05;;;;;;;22.48;62.49;97997.22;7316257;19;129718;-37
2022/11/18 07:19:06;;;;;;;27.90;2.90;;;;;;;22.48;62.42;98001.63;7317738;19;129177;-38
2022/11/18 07:21:31;;;;;;;27.02;2.88;;;;;;;22.43;62.97;98001.41;7311552;19;129953;-37
2022/11/18 07:23:57;;;;;;;61.40;5.85;;;;;;;22.40;62.78;98006.97;7315560;19;129975;-36
2022/11/18 07:26:22;;;;;;;33.65;3.40;;;;;;;22.36;63.22;98008.34;7316424;19;130357;-37
2022/11/18 07:28:48;;;;;;;34.30;3.38;;;;;;;22.37;62.97;98015.22;7315232;19;128834;-37
2022/11/18 07:31:17;;;;;;;67.78;5.60;;;;;;;22.36;62.60;98009.16;7313709;19;129125;-34
2022/11/18 07:33:43;;;;;;;51.72;4.57;;;;;;;22.36;63.11;98009.16;7314446;19;129753;-39
2022/11/18 07:36:14;;;;;;;23.20;2.80;;;;;;;22.21;63.39;97990.06;7315485;19;130497;-36
2022/11/18 07:38:40;;;;;;;38.55;3.75;;;;;;;22.35;62.81;98012.78;7317129;19;128949;-37
2022/11/18 07:41:11;;;;;;;117.30;8.97;;;;;;;22.33;63.37;98017.38;7291872;19;130802;-39
2022/11/18 07:43:37;;;;;;;40.58;3.80;;;;;;;22.37;62.71;98021.25;7295207;19;130589;-36
2022/11/18 07:46:31;;;;;;;141.27;10.55;;;;;;;22.31;63.05;98008.09;7297555;19;130008;-38
2022/11/18 07:48:59;;;;;;;162.00;11.77;;;;;;;22.31;63.29;98013.34;7285712;19;130810;-37
2022/11/18 07:51:27;;;;;;;130.75;9.95;;;;;;;22.30;63.16;98020.38;7287498;19;132467;-38
2022/11/18 07:53:52;;;;;;;175.05;13.02;;;;;;;22.26;63.42;98029.59;7285961;19;129872;-40
2022/11/18 07:56:18;;;;;;;134.13;9.90;;;;;;;22.24;63.44;98025.50;7286864;19;130088;-40
2022/11/18 07:58:44;;;;;;;130.45;10.02;;;;;;;22.26;62.91;98031.38;7287320;19;130642;-38
2022/11/18 08:01:14;;;;;;;148.13;10.87;;;;;;;22.24;63.28;98034.19;7275240;19;131364;-38
2022/11/18 08:03:40;;;;;;;142.25;10.48;;;;;;;22.17;63.53;98040.31;7278600;19;132576;-41
2022/11/18 08:06:07;;;;;;;167.13;11.80;;;;;;;22.13;63.94;98039.06;7281828;19;134574;-38
2022/11/18 08:08:33;;;;;;;147.70;10.90;;;;;;;22.09;63.59;98037.78;7280209;19;130796;-37
2022/11/18 08:11:01;;;;;;;144.13;10.57;;;;;;;22.08;64.04;98046.66;7284993;19;130921;-39
2022/11/18 08:13:27;;;;;;;132.45;9.63;;;;;;;22.03;63.61;98049.00;7286098;19;130872;-38
2022/11/18 08:15:53;;;;;;;147.20;10.83;;;;;;;22.01;64.23;98045.72;7284491;19;130499;-42
2022/11/18 08:18:19;;;;;;;143.90;10.43;;;;;;;22.02;63.95;98049.97;7280933;19;130358;-39
2022/11/18 08:20:45;;;;;;;129.07;9.70;;;;;;;21.96;63.82;98048.91;7286062;19;130796;-41
2022/11/18 08:23:12;;;;;;;129.85;9.65;;;;;;;21.91;64.62;98035.53;7286244;19;130558;-38
2022/11/18 08:25:37;;;;;;;153.95;11.43;;;;;;;21.89;64.23;98035.72;7282397;19;130447;-36
2022/11/18 08:28:03;;;;;;;138.03;10.30;;;;;;;21.89;64.66;98043.56;7281957;19;132122;-38
2022/11/18 08:30:28;;;;;;;139.43;10.35;;;;;;;21.88;64.42;98041.94;7282422;19;131740;-39
2022/11/18 08:32:54;;;;;;;176.82;12.93;;;;;;;21.80;64.72;98025.50;7282904;19;131629;-38
2022/11/18 08:35:20;;;;;;;149.18;10.98;;;;;;;21.85;64.52;98051.94;7283899;19;130197;-40
2022/11/18 08:37:45;;;;;;;148.73;11.23;;;;;;;21.84;65.01;98056.38;7282892;19;130959;-37
2022/11/18 08:40:11;;;;;;;141.07;10.40;;;;;;;21.84;64.75;98052.94;7284446;19;131684;-38
2022/11/18 08:42:37;;;;;;;125.43;9.13;;;;;;;21.83;64.37;98067.81;7281553;19;129726;-38
2022/11/18 08:45:07;;;;;;;139.68;10.18;;;;;;;21.82;64.84;98063.59;7282793;19;130327;-39
2022/11/18 08:47:33;;;;;;;114.68;8.77;;;;;;;21.75;64.48;98062.63;7285141;19;131214;-37
2022/11/18 08:49:58;;;;;;;145.70;10.80;;;;;;;21.79;65.29;98057.88;7283018;19;129894;-36
2022/11/18 08:52:24;;;;;;;132.87;9.67;;;;;;;21.80;65.18;98070.78;7282894;19;129590;-37
2022/11/18 08:54:49;;;;;;;134.98;10.13;;;;;;;21.78;64.64;98070.16;7284113;19;129690;-41
2022/11/18 08:57:14;;;;;;;151.25;11.27;;;;;;;21.66;65.25;98058.47;7281863;19;131606;-39
2022/11/18 08:59:40;;;;;;;131.85;9.88;;;;;;;21.74;65.42;98078.50;7285164;19;129529;-38
2022/11/18 09:02:11;;;;;;;143.30;10.50;;;;;;;21.72;64.84;98083.91;7280476;19;131915;-38
2022/11/18 09:04:36;;;;;;;140.07;10.32;;;;;;;21.70;64.70;98080.66;7284855;19;130607;-38
2022/11/18 09:07:02;;;;;;;132.15;9.77;;;;;;;21.70;65.47;98096.34;7283111;19;130404;-38
2022/11/18 09:09:27;;;;;;;131.52;9.75;;;;;;;21.70;65.11;98085.88;7282660;19;130588;-38
2022/11/18 09:11:52;;;;;;;158.70;11.55;;;;;;;21.70;65.30;98083.28;7279855;19;129863;-39
2022/11/18 09:14:18;;;;;;;128.68;9.55;;;;;;;21.72;65.56;98090.94;7283817;19;131086;-37
2022/11/18 09:16:43;;;;;;;113.95;8.88;;;;;;;21.56;65.20;98078.81;7284065;19;129991;-39
2022/11/18 09:19:08;;;;;;;134.82;9.75;;;;;;;21.70;65.49;98096.34;7283229;19;130353;-41
2022/11/18 09:21:34;;;;;;;127.97;9.57;;;;;;;21.72;64.89;98099.59;7283161;19;131947;-38
2022/11/18 09:24:03;;;;;;;142.05;10.70;;;;;;;21.71;64.93;98103.22;7282900;19;130312;-40
2022/11/18 09:26:29;;;;;;;167.48;12.52;;;;;;;21.74;65.22;98109.88;7279950;19;130562;-38
2022/11/18 09:28:54;;;;;;;142.10;10.40;;;;;;;21.61;65.42;98097.41;7280503;19;130320;-40
2022/11/18 09:31:20;;;;;;;127.65;9.98;;;;;;;21.70;64.94;98106.81;7278911;19;131390;-38
2022/11/18 09:33:45;;;;;;;186.27;13.70;;;;;;;21.70;64.83;98109.44;7282324;19;130623;-39
2022/11/18 09:36:14;;;;;;;153.27;11.50;;;;;;;21.72;65.09;98110.06;7279447;19;131631;-39
2022/11/18 09:38:40;;;;;;;139.35;10.40;;;;;;;21.69;64.81;98113.03;7281578;19;131235;-35
2022/11/18 09:41:08;;;;;;;155.50;11.60;;;;;;;21.71;65.18;98118.91;7278236;19;130252;-35
2022/11/18 09:43:45;;;;;;;127.43;9.50;;;;;;;21.67;65.09;98122.03;7279995;19;130228;-40
2022/11/18 09:46:19;;;;;;;150.80;10.93;;;;;;;21.64;65.08;98123.22;7283839;19;132836;-40
2022/11/18 09:51:38;;;;;;;138.45;10.25;;;;;;;21.65;65.05;98126.66;7277428;19;129979;-37
2022/11/18 09:54:06;;;;;;;137.57;10.07;;;;;;;21.64;65.19;98138.91;7279855;19;130497;-38
2022/11/18 09:56:32;;;;;;;148.20;11.02;;;;;;;21.66;65.31;98143.97;7279954;19;130983;-39
2022/11/18 09:58:57;;;;;;;143.05;10.45;;;;;;;21.66;65.57;98151.81;7281408;19;131760;-40
2022/11/18 10:01:22;;;;;;;154.05;11.32;;;;;;;21.68;65.15;98155.84;7278199;19;129907;-39
2022/11/18 10:03:48;;;;;;;146.40;10.93;;;;;;;21.67;65.59;98153.44;7281413;19;132732;-38
2022/11/18 10:06:22;;;;;;;130.23;9.77;;;;;;;21.66;64.83;98150.03;7282881;19;130439;-38
2022/11/18 10:09:09;;;;;;;126.75;9.43;;;;;;;21.69;64.87;98162.75;7279037;19;129778;-40
2022/11/18 10:11:56;;;;;;;136.25;10.10;;;;;;;21.72;64.68;98157.16;7278341;19;131039;-41
2022/11/18 10:14:43;;;;;;;149.18;10.85;;;;;;;21.74;64.77;98164.81;7279691;19;130495;-35
2022/11/18 10:17:26;;;;;;;153.30;11.52;;;;;;;21.77;64.63;98170.56;7281167;19;130340;-38
2022/11/18 10:20:19;;;;;;;161.32;11.95;;;;;;;21.74;65.31;98168.25;7281935;19;129693;-38
2022/11/18 10:22:55;;;;;;;146.57;10.65;;;;;;;21.79;64.40;98165.97;7280988;19;130824;-41
2022/11/18 10:25:21;;;;;;;143.75;10.75;;;;;;;21.74;65.08;98168.25;7278950;19;130987;-38
2022/11/18 10:27:49;;;;;;;136.88;9.95;;;;;;;21.75;64.83;98167.25;7280127;19;130585;-40
2022/11/18 10:30:22;;;;;;;156.10;11.48;;;;;;;21.74;64.67;98160.41;7278270;19;131401;-37
2022/11/18 10:33:03;;;;;;;187.63;13.38;;;;;;;21.75;64.61;98172.50;7281202;19;130341;-41
2022/11/18 10:35:35;;;;;;;143.48;11.05;;;;;;;21.66;64.71;98160.47;7278180;19;131482;-41
2022/11/18 10:38:06;;;;;;;150.50;10.82;;;;;;;21.61;65.37;98154.97;7279093;19;131111;-40
2022/11/18 10:40:32;;;;;;;148.48;10.75;;;;;;;21.71;64.89;98168.63;7278286;19;129645;-39
2022/11/18 10:42:58;;;;;;;174.75;12.85;;;;;;;21.71;65.28;98176.47;7279157;19;130971;-38
2022/11/18 10:45:31;;;;;;;140.45;10.48;;;;;;;21.70;65.31;98174.81;7277787;19;131156;-38
2022/11/18 10:48:07;;;;;;;152.55;11.25;;;;;;;21.73;65.43;98174.47;7281880;19;130596;-38
2022/11/18 10:50:41;;;;;;;149.90;10.98;;;;;;;21.72;65.21;98185.94;7284576;19;130869;-37
2022/11/18 10:53:31;;;;;;;176.02;12.77;;;;;;;21.73;65.28;98190.16;7284458;19;133114;-39
2022/11/18 10:56:04;;;;;;;153.15;11.30;;;;;;;21.73;65.48;98202.44;7287132;19;130348;-37
2022/11/18 10:58:33;;;;;;;131.02;9.73;;;;;;;21.76;65.41;98197.72;7287031;19;131114;-40
2022/11/18 11:01:04;;;;;;;164.73;12.27;;;;;;;21.77;64.88;98196.72;7285863;19;130760;-41
2022/11/18 11:03:33;;;;;;;156.43;11.45;;;;;;;21.81;64.98;98197.19;7286935;19;131272;-38
2022/11/18 11:06:20;;;;;;;140.60;10.40;;;;;;;21.83;64.90;98208.28;7288720;19;131395;-41
2022/11/18 11:08:50;;;;;;;174.50;12.83;;;;;;;21.83;64.46;98216.13;7285015;19;130702;-37
2022/11/18 11:11:28;;;;;;;153.15;11.43;;;;;;;21.81;65.19;98224.16;7283005;19;130947;-36
2022/11/18 11:14:04;;;;;;;163.82;12.15;;;;;;;21.77;64.83;98220.25;7285458;19;131049;-37
2022/11/18 11:16:35;;;;;;;120.38;9.50;;;;;;;21.80;64.46;98229.53;7287806;19;131021;-39
2022/11/18 11:19:03;;;;;;;129.40;10.02;;;;;;;21.82;64.81;98236.25;7283097;19;131072;-38
2022/11/18 11:21:28;;;;;;;150.32;11.05;;;;;;;21.76;65.09;98242.19;7277998;19;130919;-38
2022/11/18 11:23:54;;;;;;;210.80;15.57;;;;;;;21.78;64.94;98245.41;7279616;19;130970;-38
2022/11/18 11:26:28;;;;;;;138.40;10.18;;;;;;;21.80;64.53;98251.28;7281860;19;130060;-41
2022/11/18 11:29:35;;;;;;;153.95;11.27;;;;;;;21.81;65.19;98250.31;7283515;19;130796;-40
2022/11/18 11:32:22;;;;;;;192.80;13.93;;;;;;;21.80;64.75;98251.28;7280210;19;129930;-34
2022/11/18 11:35:12;;;;;;;198.15;14.23;;;;;;;21.81;65.20;98255.56;7282175;19;130457;-41
2022/11/18 11:37:46;;;;;;;123.30;9.65;;;;;;;21.81;64.73;98266.03;7283388;19;130968;-40
2022/11/18 11:40:25;;;;;;;147.75;11.18;;;;;;;21.86;65.12;98263.72;7285228;19;130539;-39
2022/11/18 11:43:10;;;;;;;134.45;10.20;;;;;;;21.86;65.06;98258.47;7285958;19;131000;-39
2022/11/18 11:45:45;;;;;;;117.88;9.25;;;;;;;21.85;64.25;98262.06;7279048;19;130446;-35